createdAt,value
2023-04-06T00:01:24.772Z,-1.10
2023-04-06T00:03:51.965Z,-1.20
2023-04-06T00:06:18.680Z,-1.10
2023-04-06T00:08:45.705Z,-1.00
2023-04-06T00:11:12.580Z,-1.00
2023-04-06T00:13:39.343Z,-1.10
2023-04-06T00:16:06.997Z,-1.10
2023-04-06T00:18:33.914Z,-1.20
2023-04-06T00:21:01.441Z,-1.20
2023-04-06T00:23:28.195Z,-1.30
2023-04-06T00:25:55.290Z,-1.40
2023-04-06T00:28:26.262Z,-1.50
2023-04-06T00:30:56.463Z,-1.50
2023-04-06T00:33:24.511Z,-1.50
2023-04-06T00:35:51.955Z,-1.50
2023-04-06T00:38:19.364Z,-1.60
2023-04-06T00:40:49.207Z,-1.70
2023-04-06T00:43:16.188Z,-1.80
2023-04-06T00:45:46.229Z,-1.80
2023-04-06T00:48:13.081Z,-1.80
2023-04-06T00:50:39.786Z,-1.70
2023-04-06T00:53:06.480Z,-1.70
2023-04-06T00:55:33.289Z,-1.70
2023-04-06T00:58:01.622Z,-1.80
2023-04-06T01:00:28.421Z,-2.00
2023-04-06T01:02:55.378Z,-2.10
2023-04-06T01:05:25.367Z,-2.20
2023-04-06T01:07:52.207Z,-2.30
2023-04-06T01:10:27.016Z,-2.20
2023-04-06T01:12:53.910Z,-2.30
2023-04-06T01:15:22.179Z,-2.30
2023-04-06T01:17:49.176Z,-2.30
2023-04-06T01:20:16.672Z,-2.40
2023-04-06T01:22:43.452Z,-2.50
2023-04-06T01:25:11.922Z,-2.60
2023-04-06T01:27:38.657Z,-2.60
2023-04-06T01:30:07.048Z,-2.70
2023-04-06T01:32:33.999Z,-2.80
2023-04-06T01:35:00.738Z,-2.80
2023-04-06T01:37:27.616Z,-2.90
2023-04-06T01:39:54.356Z,-3.00
2023-04-06T01:42:23.418Z,-3.10
2023-04-06T01:44:50.342Z,-3.00
2023-04-06T01:47:17.285Z,-3.00
2023-04-06T01:49:46.570Z,-3.00
2023-04-06T01:52:13.329Z,-3.10
2023-04-06T01:54:40.405Z,-3.20
2023-04-06T01:57:07.177Z,-3.10
2023-04-06T01:59:34.028Z,-3.10
2023-04-06T02:02:01.027Z,-3.10
2023-04-06T02:04:30.911Z,-3.00
2023-04-06T02:07:00.574Z,-3.00
2023-04-06T02:09:27.291Z,-3.00
2023-04-06T02:11:54.125Z,-3.00
2023-04-06T02:14:21.037Z,-3.00
2023-04-06T02:16:47.924Z,-3.10
2023-04-06T02:19:14.651Z,-3.10
2023-04-06T02:21:41.473Z,-3.10
2023-04-06T02:24:08.251Z,-3.10
2023-04-06T02:26:49.297Z,-3.10
2023-04-06T02:29:16.116Z,-3.10
2023-04-06T02:31:42.914Z,-3.10
2023-04-06T02:34:12.035Z,-3.20
2023-04-06T02:36:38.811Z,-3.20
2023-04-06T02:39:05.633Z,-3.20
2023-04-06T02:41:32.373Z,-3.20
2023-04-06T02:43:59.125Z,-3.30
2023-04-06T02:46:28.488Z,-3.30
2023-04-06T02:48:55.773Z,-3.30
2023-04-06T02:51:22.471Z,-3.40
2023-04-06T02:53:49.382Z,-3.40
2023-04-06T02:56:18.648Z,-3.50
2023-04-06T02:58:45.428Z,-3.60
2023-04-06T03:01:12.188Z,-3.60
2023-04-06T03:03:39.178Z,-3.70
2023-04-06T03:06:06.171Z,-3.70
2023-04-06T03:08:33.007Z,-3.70
2023-04-06T03:10:59.732Z,-3.80
2023-04-06T03:13:26.519Z,-3.80
2023-04-06T03:15:53.389Z,-3.80
2023-04-06T03:18:24.115Z,-3.70
2023-04-06T03:20:51.353Z,-3.70
2023-04-06T03:23:18.397Z,-3.70
2023-04-06T03:25:45.362Z,-3.50
2023-04-06T03:28:12.106Z,-3.50
2023-04-06T03:30:38.977Z,-3.50
2023-04-06T03:33:06.184Z,-3.50
2023-04-06T03:35:33.080Z,-3.50
2023-04-06T03:38:02.204Z,-3.50
2023-04-06T03:40:28.953Z,-3.60
2023-04-06T03:42:55.733Z,-3.50
2023-04-06T03:45:25.300Z,-3.50
2023-04-06T03:47:52.078Z,-3.60
2023-04-06T03:50:18.993Z,-3.60
2023-04-06T03:52:51.913Z,-3.70
2023-04-06T03:55:21.510Z,-3.80
2023-04-06T03:57:48.454Z,-3.80
2023-04-06T04:00:15.861Z,-3.80
2023-04-06T04:02:43.074Z,-3.80
2023-04-06T04:05:10.265Z,-3.80
2023-04-06T04:07:37.088Z,-3.80
2023-04-06T04:10:04.328Z,-3.90
2023-04-06T04:12:31.022Z,-4.00
2023-04-06T04:14:57.813Z,-4.10
2023-04-06T04:17:27.331Z,-4.00
2023-04-06T04:20:17.502Z,-4.00
2023-04-06T04:22:44.280Z,-4.10
2023-04-06T04:25:13.133Z,-4.20
2023-04-06T04:27:39.911Z,-4.20
2023-04-06T04:30:09.817Z,-4.20
2023-04-06T04:32:58.282Z,-4.20
2023-04-06T04:35:25.332Z,-4.30
2023-04-06T04:37:52.254Z,-4.30
2023-04-06T04:40:19.038Z,-4.20
2023-04-06T04:42:46.058Z,-4.10
2023-04-06T04:45:12.959Z,-4.00
2023-04-06T04:47:39.753Z,-4.00
2023-04-06T04:50:17.460Z,-4.00
2023-04-06T04:52:47.299Z,-4.00
2023-04-06T04:55:14.428Z,-4.00
2023-04-06T04:57:41.179Z,-4.00
2023-04-06T05:00:08.754Z,-3.90
2023-04-06T05:03:37.485Z,-3.70
2023-04-06T05:06:04.653Z,-3.50
2023-04-06T05:08:46.748Z,-3.50
2023-04-06T05:11:13.618Z,-3.40
2023-04-06T05:13:42.432Z,-3.30
2023-04-06T05:16:12.375Z,-3.30
2023-04-06T05:18:45.622Z,-3.30
2023-04-06T05:21:12.705Z,-3.20
2023-04-06T05:23:39.480Z,-3.20
2023-04-06T05:26:06.566Z,-3.10
2023-04-06T05:28:36.406Z,-3.00
2023-04-06T05:31:03.267Z,-2.90
2023-04-06T05:33:30.266Z,-2.90
2023-04-06T05:36:02.003Z,-2.80
2023-04-06T05:38:28.887Z,-2.70
2023-04-06T05:40:55.692Z,-2.70
2023-04-06T05:43:23.621Z,-2.60
2023-04-06T05:45:50.369Z,-2.40
2023-04-06T05:48:17.142Z,-2.30
2023-04-06T05:50:44.027Z,-2.20
2023-04-06T05:53:10.830Z,-2.00
2023-04-06T05:55:37.598Z,-1.90
2023-04-06T05:58:04.389Z,-1.70
2023-04-06T06:00:31.234Z,-1.60
2023-04-06T06:03:00.350Z,-1.50
2023-04-06T06:05:27.207Z,-1.30
2023-04-06T06:07:54.049Z,-1.20
2023-04-06T06:10:23.085Z,-0.70
2023-04-06T06:12:49.922Z,-0.20
2023-04-06T06:15:16.837Z,0.60
2023-04-06T06:17:46.654Z,1.30
2023-04-06T06:20:16.768Z,2.10
2023-04-06T06:22:43.470Z,2.90
2023-04-06T06:25:16.617Z,3.60
2023-04-06T06:27:43.990Z,4.10
2023-04-06T06:30:11.057Z,4.50
2023-04-06T06:32:38.001Z,4.70
2023-04-06T06:35:05.086Z,4.90
2023-04-06T06:37:34.325Z,5.20
2023-04-06T06:40:01.118Z,5.40
2023-04-06T06:42:27.822Z,5.50
2023-04-06T07:02:13.323Z,6.00
2023-04-06T07:04:40.114Z,8.50
2023-04-06T07:07:07.047Z,9.00
2023-04-06T07:09:37.012Z,8.80
2023-04-06T07:12:03.854Z,8.80
2023-04-06T07:14:30.686Z,8.70
2023-04-06T07:16:57.495Z,8.90
2023-04-06T07:19:24.609Z,8.50
2023-04-06T07:21:51.435Z,8.40
2023-04-06T07:24:18.281Z,8.60
2023-04-06T07:26:47.839Z,8.80
2023-04-06T07:29:14.540Z,8.50
2023-04-06T07:31:41.418Z,7.90
2023-04-06T07:34:08.304Z,7.90
2023-04-06T07:36:37.534Z,8.10
2023-04-06T07:39:04.364Z,8.40
2023-04-06T07:41:33.915Z,8.80
2023-04-06T10:41:07.516Z,8.80
2023-04-06T19:22:39.237Z,15.90
2023-04-06T19:25:07.771Z,7.20
2023-04-06T19:27:34.796Z,7.10
2023-04-06T19:30:01.704Z,7.00
2023-04-06T19:32:30.148Z,7.00
2023-04-06T19:34:59.397Z,7.00
2023-04-06T19:37:26.636Z,6.90
2023-04-06T19:39:53.317Z,6.90
2023-04-06T19:42:30.470Z,6.90
2023-04-06T19:44:58.505Z,6.80
2023-04-06T19:47:25.567Z,6.80
2023-04-06T19:49:54.370Z,6.70
2023-04-06T19:52:22.548Z,6.70
2023-04-06T19:54:52.042Z,6.60
2023-04-06T19:57:18.714Z,6.60
2023-04-06T19:59:45.545Z,6.50
2023-04-06T20:02:12.444Z,6.60
2023-04-06T20:04:39.672Z,6.50
2023-04-06T20:07:06.379Z,6.50
2023-04-06T20:09:33.167Z,6.50
2023-04-06T20:12:00.741Z,6.50
2023-04-06T20:14:28.528Z,6.50
2023-04-06T20:16:55.367Z,6.50
2023-04-06T20:19:22.225Z,6.50
2023-04-06T20:21:48.928Z,6.50
2023-04-06T20:24:15.885Z,6.40
2023-04-06T20:26:42.604Z,6.40
2023-04-06T20:29:09.315Z,6.40
2023-04-06T20:31:36.234Z,6.30
2023-04-06T20:34:03.263Z,6.30
2023-04-06T20:36:32.307Z,6.30
2023-04-06T20:38:59.100Z,6.20
2023-04-06T20:41:25.784Z,6.20
2023-04-06T20:43:52.483Z,6.20
2023-04-06T20:46:22.258Z,6.20
2023-04-06T20:48:49.090Z,6.20
2023-04-06T20:51:20.416Z,6.20
2023-04-06T20:53:48.492Z,6.20
2023-04-06T20:56:15.924Z,6.20
2023-04-06T20:58:42.752Z,6.20
2023-04-06T21:01:15.124Z,6.20
2023-04-06T21:03:43.126Z,6.20
2023-04-06T21:06:10.875Z,6.20
2023-04-06T21:08:37.907Z,6.10
2023-04-06T21:11:05.147Z,6.10
2023-04-06T21:13:32.416Z,6.10
2023-04-06T21:15:59.799Z,6.10
2023-04-06T21:18:26.674Z,6.10
